Time;durP1;ratioP1;P1;durP2;ratioP2;P2;SDS_P1;SDS_P2;PMS_P1;PMS_P2;Temp;Humidity;BMP_temperature;BMP_pressure;BME280_temperature;BME280_humidity;BME280_pressure;Samples;Min_cycle;Max_cycle;Signal;HPM_P1;HPM_P2
2022/08/29 00:00:56;;;;;;;7.53;4.63;;;;;;;13.08;88.24;102054.72;5061429;28;20570;-89
2022/08/29 00:03:22;;;;;;;14.60;6.20;;;;;;;13.05;88.62;102054.28;5014245;28;20085;-88
2022/08/29 00:05:47;;;;;;;11.47;5.87;;;;;;;12.98;88.75;102054.22;5059768;28;20036;-88
2022/08/29 00:08:13;;;;;;;12.70;6.30;;;;;;;12.87;89.75;102049.34;5061582;28;20036;-88
2022/08/29 00:10:39;;;;;;;14.67;7.00;;;;;;;12.93;89.41;102053.97;5043122;28;20302;-88
2022/08/29 00:13:06;;;;;;;15.23;7.23;;;;;;;12.87;90.02;102050.16;5061458;28;20040;-88
2022/08/29 00:15:32;;;;;;;18.57;10.10;;;;;;;12.77;90.27;102047.78;5043612;28;20039;-88
2022/08/29 00:17:57;;;;;;;19.27;10.10;;;;;;;12.71;90.65;102045.00;5060318;28;20570;-88
2022/08/29 00:20:25;;;;;;;22.10;11.30;;;;;;;12.54;91.68;102053.44;5059590;28;20126;-88
2022/08/29 00:22:51;;;;;;;18.50;9.87;;;;;;;12.54;91.10;102047.16;5062031;28;20032;-88
2022/08/29 00:25:17;;;;;;;21.30;12.67;;;;;;;12.56;91.46;102053.25;5042067;28;20043;-88
2022/08/29 00:27:42;;;;;;;22.33;9.97;;;;;;;12.48;91.03;102044.22;5061362;28;20060;-90
2022/08/29 00:30:09;;;;;;;23.87;12.63;;;;;;;12.50;90.99;102044.84;5042812;28;20508;-89
2022/08/29 00:32:35;;;;;;;22.57;12.00;;;;;;;12.36;91.10;102039.47;5030068;28;20111;-88
2022/08/29 00:35:07;;;;;;;18.60;9.50;;;;;;;12.37;91.19;102050.16;5026100;28;20178;-89
2022/08/29 00:37:33;;;;;;;20.67;9.43;;;;;;;12.30;91.12;102041.94;5042738;28;20074;-88
2022/08/29 00:39:59;;;;;;;20.30;10.03;;;;;;;12.33;91.06;102044.28;5060449;28;20038;-89
2022/08/29 00:42:24;;;;;;;18.83;9.67;;;;;;;12.31;90.67;102050.94;5043113;28;20037;-88
2022/08/29 00:44:50;;;;;;;19.63;10.90;;;;;;;12.18;91.11;102062.50;5061720;28;20105;-88
2022/08/29 00:47:19;;;;;;;18.83;9.43;;;;;;;12.13;91.32;102064.94;5061264;28;20029;-88
2022/08/29 00:49:49;;;;;;;19.33;10.03;;;;;;;12.13;91.31;102060.38;5046336;28;20039;-88
2022/08/29 00:52:39;;;;;;;22.60;13.20;;;;;;;12.10;91.21;102071.63;5060691;28;20578;-88
2022/08/29 00:55:13;;;;;;;20.90;11.93;;;;;;;11.93;92.13;102070.97;5061352;28;20480;-88
2022/08/29 00:57:40;;;;;;;;;;;;;;;12.21;89.47;102062.13;5061315;28;20032;-88
2022/08/29 01:00:06;;;;;;;17.43;9.83;;;;;;;11.85;90.39;102046.63;5042458;28;19916;-88
2022/08/29 01:02:32;;;;;;;20.83;10.57;;;;;;;11.87;91.48;102046.44;5042687;28;20035;-88
2022/08/29 01:04:59;;;;;;;20.53;11.47;;;;;;;11.80;91.79;102060.81;5060673;28;20085;-89
2022/08/29 01:07:25;;;;;;;18.80;10.87;;;;;;;11.74;91.78;102063.44;5059121;28;20138;-88
2022/08/29 01:09:51;;;;;;;18.30;10.27;;;;;;;11.66;91.53;102069.81;5060582;28;20063;-88
2022/08/29 01:12:18;;;;;;;18.13;10.33;;;;;;;11.58;92.32;102068.03;5042779;28;21050;-88
2022/08/29 01:14:54;;;;;;;18.00;10.40;;;;;;;11.62;92.69;102068.50;5058826;28;20097;-88
2022/08/29 01:17:25;;;;;;;15.97;8.63;;;;;;;11.58;91.72;102062.59;5060996;28;20036;-88
2022/08/29 01:20:13;;;;;;;17.47;9.33;;;;;;;11.61;91.79;102062.25;5020976;28;20652;-89
2022/08/29 01:22:57;;;;;;;17.43;8.83;;;;;;;11.50;91.26;102057.25;5023026;28;20516;-88
2022/08/29 01:25:26;;;;;;;15.93;8.02;;;;;;;11.52;90.51;102065.22;5024308;28;20453;-88
2022/08/29 01:28:20;;;;;;;11.47;7.23;;;;;;;11.55;91.55;102071.13;5024667;28;20036;-89
2022/08/29 01:30:56;;;;;;;16.15;7.75;;;;;;;11.43;91.37;102072.63;5016614;28;20052;-89
2022/08/29 01:33:21;;;;;;;12.33;6.90;;;;;;;11.39;91.06;102068.59;5024371;28;20032;-88
2022/08/29 01:35:47;;;;;;;16.17;7.67;;;;;;;11.37;91.55;102070.66;5022676;28;20036;-89
2022/08/29 01:38:26;;;;;;;13.90;6.83;;;;;;;11.36;91.50;102063.56;5024859;28;20040;-89
2022/08/29 01:40:55;;;;;;;13.57;7.03;;;;;;;11.35;91.67;102059.16;5005693;28;20037;-92
2022/08/29 01:43:21;;;;;;;12.57;7.30;;;;;;;11.31;91.78;102061.38;5023975;28;20036;-89
2022/08/29 01:45:48;;;;;;;10.97;6.17;;;;;;;11.22;92.44;102052.50;5023571;28;20098;-89
2022/08/29 01:48:14;;;;;;;9.00;5.87;;;;;;;11.36;92.75;102052.69;5024227;28;20041;-89
2022/08/29 01:50:39;;;;;;;6.40;5.03;;;;;;;11.26;93.34;102052.97;5023622;28;20073;-89
2022/08/29 01:53:04;;;;;;;8.43;5.00;;;;;;;11.24;94.04;102055.88;4992313;28;20501;-91
2022/08/29 01:55:30;;;;;;;9.40;5.43;;;;;;;11.23;94.45;102056.91;5023646;28;20041;-89
2022/08/29 01:57:55;;;;;;;7.97;5.67;;;;;;;11.29;95.00;102053.44;5005506;28;20033;-90
2022/08/29 02:00:21;;;;;;;10.03;5.97;;;;;;;11.23;94.68;102056.91;5023992;28;20041;-88
2022/08/29 02:02:46;;;;;;;9.47;5.73;;;;;;;11.20;93.76;102064.56;5023548;28;20045;-90
2022/08/29 02:05:12;;;;;;;8.33;5.60;;;;;;;11.11;94.09;102061.09;5023715;28;20036;-90
2022/08/29 02:07:37;;;;;;;8.17;5.47;;;;;;;11.12;93.89;102052.78;5022015;28;20045;-89
2022/08/29 02:10:04;;;;;;;6.97;5.17;;;;;;;11.10;94.19;102060.25;5023675;28;20090;-90
2022/08/29 02:12:30;;;;;;;8.97;5.47;;;;;;;11.00;95.03;102064.25;5022617;28;20060;-90
2022/08/29 02:14:55;;;;;;;8.00;5.20;;;;;;;11.01;95.35;102058.66;5005930;28;20044;-90
2022/08/29 02:17:22;;;;;;;6.60;4.97;;;;;;;11.08;94.76;102056.03;5023133;28;20528;-90
2022/08/29 02:19:48;;;;;;;5.77;4.70;;;;;;;11.00;94.50;102058.84;5025677;28;20120;-90
2022/08/29 02:22:14;;;;;;;9.30;5.27;;;;;;;10.93;94.32;102056.03;5024886;28;20140;-90
2022/08/29 02:24:40;;;;;;;8.37;5.70;;;;;;;10.86;94.38;102052.38;5043392;28;20242;-89
2022/08/29 02:27:08;;;;;;;11.20;6.50;;;;;;;10.94;94.75;102060.44;5042365;28;20444;-89
2022/08/29 02:29:33;;;;;;;10.17;5.77;;;;;;;11.02;95.15;102059.50;5044086;28;20128;-88
2022/08/29 02:31:58;;;;;;;8.33;5.87;;;;;;;10.89;95.11;102070.97;5041918;28;20498;-90
2022/08/29 02:34:24;;;;;;;7.77;5.90;;;;;;;10.85;94.89;102069.66;5043307;28;20040;-90
2022/08/29 02:36:50;;;;;;;9.43;5.57;;;;;;;10.81;94.31;102069.16;5043320;28;20036;-89
2022/08/29 02:39:17;;;;;;;7.53;5.30;;;;;;;10.76;94.85;102071.63;5029186;28;20036;-91
2022/08/29 02:41:42;;;;;;;7.30;5.10;;;;;;;10.74;95.17;102070.94;5042537;28;20389;-93
2022/08/29 02:44:07;;;;;;;9.17;5.67;;;;;;;10.71;95.49;102080.28;5043763;28;21432;-89
2022/08/29 02:46:33;;;;;;;8.27;5.43;;;;;;;10.78;96.29;102088.53;5007554;28;20045;-91
2022/08/29 02:48:58;;;;;;;11.57;5.87;;;;;;;10.74;97.12;102081.78;5042828;28;20062;-90
2022/08/29 02:51:27;;;;;;;11.57;5.97;;;;;;;10.71;97.59;102084.88;5042621;28;20048;-90
2022/08/29 02:53:54;;;;;;;9.13;5.83;;;;;;;10.73;97.22;102080.94;5024994;28;20051;-89
2022/08/29 02:56:19;;;;;;;9.63;6.03;;;;;;;10.71;96.97;102076.72;5042137;28;20086;-89
2022/08/29 02:58:46;;;;;;;9.10;6.00;;;;;;;10.70;96.84;102085.88;5043268;28;20036;-88
2022/08/29 03:01:12;;;;;;;8.13;5.70;;;;;;;10.79;97.28;102085.63;5043050;28;20036;-91
2022/08/29 03:03:38;;;;;;;10.70;5.93;;;;;;;10.81;97.08;102082.72;5041959;28;20036;-92
2022/08/29 03:06:04;;;;;;;8.07;5.27;;;;;;;10.84;96.37;102082.38;5041115;28;20395;-89
2022/08/29 03:08:29;;;;;;;8.47;5.87;;;;;;;10.85;96.03;102078.63;5024401;28;20037;-88
2022/08/29 03:10:55;;;;;;;9.23;5.90;;;;;;;10.83;96.29;102069.84;5042242;28;20071;-90
2022/08/29 03:13:20;;;;;;;7.87;5.60;;;;;;;10.82;96.42;102070.88;5042623;28;20382;-89
2022/08/29 03:15:46;;;;;;;11.43;5.83;;;;;;;10.83;96.47;102069.84;5042184;28;20289;-90
2022/08/29 03:18:13;;;;;;;11.27;6.17;;;;;;;10.79;96.74;102063.94;5040837;28;20053;-89
2022/08/29 03:20:40;;;;;;;7.27;6.07;;;;;;;10.74;97.20;102057.38;5042719;28;20888;-91
2022/08/29 03:23:06;;;;;;;14.00;6.07;;;;;;;10.74;97.74;102068.22;5024828;28;20049;-90
2022/08/29 03:25:32;;;;;;;12.37;6.13;;;;;;;10.80;97.59;102062.09;5041171;28;20535;-91
2022/08/29 03:27:58;;;;;;;8.37;5.80;;;;;;;10.79;96.96;102063.94;5040379;28;20045;-88
2022/08/29 03:30:25;;;;;;;9.20;5.87;;;;;;;10.87;96.63;102068.47;5042139;28;20265;-92
2022/08/29 03:32:50;;;;;;;10.17;5.90;;;;;;;10.77;96.62;102070.56;5042717;28;20032;-90
2022/08/29 03:35:18;;;;;;;8.53;5.90;;;;;;;10.89;96.55;102068.25;5042245;28;20509;-90
2022/08/29 03:37:44;;;;;;;8.33;5.77;;;;;;;10.87;96.47;102063.03;5041836;28;20038;-89
2022/08/29 03:40:11;;;;;;;9.37;6.20;;;;;;;10.77;96.37;102057.88;5042447;28;20094;-89
2022/08/29 03:42:38;;;;;;;10.47;6.40;;;;;;;10.79;96.51;102058.53;5041786;28;20044;-93
2022/08/29 03:45:06;;;;;;;10.47;6.33;;;;;;;10.87;96.42;102059.50;5041916;28;20094;-89
2022/08/29 03:47:32;;;;;;;9.00;5.80;;;;;;;10.92;96.23;102066.03;5042462;28;20028;-91
2022/08/29 03:49:57;;;;;;;10.57;6.07;;;;;;;10.85;96.58;102059.66;5041520;28;20032;-90
2022/08/29 03:52:23;;;;;;;6.83;5.20;;;;;;;10.88;96.46;102056.59;5040132;28;20036;-90
2022/08/29 03:54:48;;;;;;;8.53;5.97;;;;;;;10.86;96.48;102053.19;5042948;28;20127;-90
2022/08/29 03:57:14;;;;;;;6.53;5.20;;;;;;;10.77;96.54;102049.75;5041585;28;20063;-90
2022/08/29 03:59:39;;;;;;;8.20;5.60;;;;;;;10.80;96.40;102045.81;5042201;28;20459;-90
2022/08/29 04:02:04;;;;;;;6.70;5.03;;;;;;;10.89;96.75;102047.44;5040778;28;20376;-89
2022/08/29 04:07:14;;;;;;;6.22;4.93;;;;;;;10.72;96.97;102029.63;5041627;28;20055;-88
2022/08/29 04:09:40;;;;;;;6.27;4.83;;;;;;;10.66;96.83;102030.34;5042506;28;20033;-89
2022/08/29 04:12:09;;;;;;;6.83;4.93;;;;;;;10.63;97.24;102037.84;5041088;28;20032;-91
2022/08/29 04:14:34;;;;;;;8.57;5.43;;;;;;;10.54;97.36;102036.22;5041726;28;20540;-91
2022/08/29 04:17:00;;;;;;;6.50;4.60;;;;;;;10.58;97.21;102033.97;5023104;28;20037;-89
2022/08/29 04:19:25;;;;;;;6.77;4.50;;;;;;;10.52;97.18;102037.44;5042093;28;20060;-91
2022/08/29 04:21:51;;;;;;;7.77;4.80;;;;;;;10.45;96.84;102040.03;5040976;28;20041;-89
2022/08/29 04:24:18;;;;;;;5.43;4.93;;;;;;;10.52;97.17;102051.81;5041527;28;20036;-92
2022/08/29 04:26:44;;;;;;;7.40;4.90;;;;;;;10.42;97.22;102046.63;5041728;28;20094;-88
2022/08/29 04:29:11;;;;;;;7.17;5.13;;;;;;;10.44;96.54;102043.75;5042014;28;20060;-90
2022/08/29 04:31:37;;;;;;;5.50;4.70;;;;;;;10.46;96.42;102050.66;5041338;28;20037;-90
2022/08/29 04:34:05;;;;;;;7.03;5.20;;;;;;;10.35;96.83;102042.13;5040778;28;20060;-89
2022/08/29 04:36:33;;;;;;;9.17;5.57;;;;;;;10.26;96.68;102044.84;5040792;28;20033;-91
2022/08/29 04:38:58;;;;;;;7.33;5.20;;;;;;;10.41;96.54;102041.41;5026499;28;20481;-90
2022/08/29 04:41:24;;;;;;;10.03;5.30;;;;;;;10.38;97.07;102044.50;5041227;28;20040;-90
2022/08/29 04:43:49;;;;;;;9.73;5.50;;;;;;;10.31;96.42;102047.88;5040921;28;20657;-90
2022/08/29 04:46:15;;;;;;;7.37;5.40;;;;;;;10.27;96.83;102051.97;5004869;28;20036;-90
2022/08/29 04:48:41;;;;;;;9.40;5.50;;;;;;;10.23;97.47;102052.53;5009750;28;20377;-88
2022/08/29 04:51:06;;;;;;;8.40;5.33;;;;;;;10.17;97.55;102056.75;5040787;28;20056;-89
2022/08/29 04:53:32;;;;;;;9.73;6.27;;;;;;;10.13;98.04;102058.16;5041299;28;20048;-88
2022/08/29 04:56:02;;;;;;;11.73;6.40;;;;;;;10.12;98.75;102051.06;5040070;28;20370;-87
2022/08/29 04:58:27;;;;;;;11.70;7.53;;;;;;;10.18;99.58;102063.88;5042330;28;20461;-89
2022/08/29 05:00:54;;;;;;;11.43;7.63;;;;;;;10.18;99.99;102063.03;5045061;28;20037;-91
2022/08/29 05:03:20;;;;;;;15.60;8.27;;;;;;;10.18;100.00;102068.47;5043771;28;20527;-91
2022/08/29 05:06:20;;;;;;;11.80;7.70;;;;;;;10.18;100.00;102073.88;5045316;28;20047;-88
2022/08/29 05:08:46;;;;;;;12.30;7.03;;;;;;;10.14;100.00;102065.25;5042727;28;20049;-89
2022/08/29 05:11:18;;;;;;;12.83;7.27;;;;;;;10.27;100.00;102065.50;5044644;28;20121;-89
2022/08/29 05:13:45;;;;;;;14.20;7.80;;;;;;;10.26;100.00;102071.13;5044270;28;20123;-88
2022/08/29 05:16:12;;;;;;;11.23;6.83;;;;;;;10.28;100.00;102067.22;5044466;28;20032;-88
2022/08/29 05:18:38;;;;;;;12.60;6.90;;;;;;;10.31;99.86;102072.25;5044119;28;20422;-87
2022/08/29 05:21:04;;;;;;;11.97;7.20;;;;;;;10.38;100.00;102069.69;5044134;28;20036;-89
2022/08/29 05:23:30;;;;;;;11.13;7.70;;;;;;;10.41;100.00;102073.91;5043252;28;20489;-89
2022/08/29 05:25:58;;;;;;;13.83;8.00;;;;;;;10.41;100.00;102073.91;5027304;28;20033;-90
2022/08/29 05:28:25;;;;;;;11.47;7.37;;;;;;;10.36;100.00;102065.47;5043640;28;20033;-89
2022/08/29 05:30:51;;;;;;;12.10;8.40;;;;;;;10.42;100.00;102078.31;5044550;28;20392;-88
2022/08/29 05:33:16;;;;;;;13.93;8.07;;;;;;;10.48;100.00;102088.41;5043168;28;20178;-88
2022/08/29 05:35:42;;;;;;;13.03;8.50;;;;;;;10.54;100.00;102087.72;5044680;28;20037;-89
2022/08/29 05:38:08;;;;;;;12.83;8.30;;;;;;;10.59;100.00;102079.88;5042548;28;20111;-89
2022/08/29 05:40:34;;;;;;;11.93;7.70;;;;;;;10.68;100.00;102083.38;5012779;28;20115;-88
2022/08/29 05:43:00;;;;;;;14.77;8.40;;;;;;;10.52;100.00;102084.31;5043844;28;20496;-89
2022/08/29 05:45:25;;;;;;;13.20;9.60;;;;;;;10.69;100.00;102084.19;5043695;28;20127;-89
2022/08/29 05:47:51;;;;;;;13.27;8.80;;;;;;;10.72;100.00;102084.69;5044203;28;21312;-89
2022/08/29 05:50:16;;;;;;;14.67;9.83;;;;;;;10.86;100.00;102088.44;5044969;28;20045;-90
2022/08/29 05:52:42;;;;;;;15.27;9.47;;;;;;;10.88;100.00;102088.25;5043746;28;20040;-90
2022/08/29 05:55:09;;;;;;;16.43;9.67;;;;;;;10.93;100.00;102089.44;5042136;28;20036;-90
2022/08/29 05:57:34;;;;;;;14.23;9.50;;;;;;;11.08;100.00;102100.31;5043370;28;20065;-89
2022/08/29 06:00:00;;;;;;;17.73;9.33;;;;;;;11.17;100.00;102103.75;5043472;28;20123;-89
2022/08/29 06:02:25;;;;;;;14.97;9.43;;;;;;;11.26;100.00;102102.66;5043355;28;20036;-89
2022/08/29 06:05:09;;;;;;;14.07;9.67;;;;;;;11.40;100.00;102109.13;5044400;28;20110;-88
2022/08/29 06:07:35;;;;;;;18.23;9.45;;;;;;;11.53;100.00;102110.34;5043147;28;20120;-89
2022/08/29 06:10:05;;;;;;;14.97;9.70;;;;;;;11.66;100.00;102114.06;5043678;28;20454;-89
2022/08/29 06:12:31;;;;;;;16.20;9.60;;;;;;;11.76;100.00;102115.66;5044009;28;20029;-90
2022/08/29 06:14:56;;;;;;;16.00;9.80;;;;;;;11.98;100.00;102112.03;5043528;28;20094;-90
2022/08/29 06:17:22;;;;;;;14.23;9.47;;;;;;;12.01;100.00;102105.38;5042526;28;20041;-89
2022/08/29 06:19:50;;;;;;;14.17;8.50;;;;;;;12.23;100.00;102103.53;5044255;28;20056;-90
2022/08/29 06:22:15;;;;;;;19.13;9.33;;;;;;;12.28;100.00;102097.50;5041976;28;20481;-87
2022/08/29 06:24:40;;;;;;;16.33;8.87;;;;;;;12.39;100.00;102110.59;5042660;28;20040;-86
2022/08/29 06:27:06;;;;;;;14.87;8.57;;;;;;;12.47;100.00;102115.91;5043310;28;20047;-85
2022/08/29 06:29:31;;;;;;;14.60;8.57;;;;;;;12.54;100.00;102115.97;5044228;28;20415;-85
2022/08/29 06:31:57;;;;;;;16.03;8.83;;;;;;;12.59;100.00;102109.94;5042505;28;20048;-85
2022/08/29 06:34:24;;;;;;;15.83;9.37;;;;;;;12.73;100.00;102110.91;5043429;28;20037;-84
2022/08/29 06:36:50;;;;;;;14.20;9.00;;;;;;;12.84;100.00;102105.78;5042629;28;20036;-85
2022/08/29 06:39:16;;;;;;;16.27;8.90;;;;;;;12.85;100.00;102112.06;5042587;28;20497;-87
2022/08/29 06:41:42;;;;;;;17.40;8.97;;;;;;;12.91;99.99;102115.91;5043434;28;20812;-86
2022/08/29 06:44:08;;;;;;;15.07;8.83;;;;;;;12.95;99.42;102104.41;5042469;28;20350;-85
2022/08/29 06:46:37;;;;;;;15.67;8.90;;;;;;;13.10;98.81;102111.66;5043482;28;20079;-85
2022/08/29 06:49:05;;;;;;;16.03;8.70;;;;;;;13.22;97.69;102106.50;5041350;28;20029;-85
2022/08/29 06:51:32;;;;;;;16.00;8.80;;;;;;;13.23;97.78;102114.47;5043314;28;20376;-84
2022/08/29 06:54:02;;;;;;;15.23;8.93;;;;;;;13.28;97.13;102122.03;5042407;28;20057;-84
2022/08/29 06:56:28;;;;;;;15.17;8.67;;;;;;;13.36;96.25;102134.69;5042238;28;20048;-84
2022/08/29 06:58:54;;;;;;;14.63;8.40;;;;;;;13.54;96.70;102129.56;5024466;28;20045;-84
2022/08/29 07:01:21;;;;;;;16.17;8.60;;;;;;;13.57;97.03;102133.78;5042987;28;20033;-84
2022/08/29 07:03:47;;;;;;;17.73;9.60;;;;;;;13.61;99.93;102138.63;5041547;28;20538;-84
2022/08/29 07:06:12;;;;;;;16.17;8.17;;;;;;;13.79;95.68;102129.06;5042663;28;20041;-84
2022/08/29 07:08:38;;;;;;;14.47;8.53;;;;;;;13.94;95.76;102132.50;5027537;28;20036;-84
2022/08/29 07:11:04;;;;;;;13.07;7.60;;;;;;;14.05;91.69;102125.63;5023897;28;20041;-84
2022/08/29 07:13:30;;;;;;;13.33;7.40;;;;;;;14.21;91.63;102135.34;5042282;28;20033;-84
2022/08/29 07:15:56;;;;;;;13.57;7.17;;;;;;;14.38;89.28;102143.16;5024640;28;20476;-83
2022/08/29 07:18:21;;;;;;;13.23;7.30;;;;;;;14.63;88.91;102141.56;5040534;28;20412;-84
2022/08/29 07:20:47;;;;;;;14.23;7.00;;;;;;;15.01;89.75;102130.06;5041117;28;20059;-84
2022/08/29 07:23:12;;;;;;;13.43;7.03;;;;;;;15.27;87.04;102133.81;5042093;28;20143;-83
2022/08/29 07:25:38;;;;;;;12.37;6.43;;;;;;;15.30;84.92;102125.19;5024177;28;20045;-84
2022/08/29 07:28:04;;;;;;;13.03;6.63;;;;;;;15.51;81.66;102126.00;5041301;28;20085;-84
2022/08/29 07:30:30;;;;;;;13.53;6.63;;;;;;;15.84;83.75;102133.28;5042664;28;20037;-84
2022/08/29 07:32:55;;;;;;;17.13;7.10;;;;;;;16.00;80.72;102132.78;5041829;28;20028;-84
2022/08/29 07:35:21;;;;;;;13.43;6.40;;;;;;;16.13;80.15;102128.31;5041237;28;20399;-84
2022/08/29 07:37:46;;;;;;;12.37;6.50;;;;;;;16.29;79.02;102125.09;5041863;28;20033;-84
2022/08/29 07:40:15;;;;;;;11.37;6.50;;;;;;;16.38;79.78;102128.41;5040560;28;20040;-84
2022/08/29 07:42:41;;;;;;;12.53;6.03;;;;;;;16.50;77.96;102128.56;5041434;28;20116;-84
2022/08/29 07:45:09;;;;;;;10.77;6.33;;;;;;;16.58;77.98;102131.03;5041255;28;20041;-83
2022/08/29 07:47:35;;;;;;;11.10;5.87;;;;;;;16.75;76.22;102127.75;5041713;28;20037;-84
2022/08/29 07:50:03;;;;;;;12.67;6.37;;;;;;;16.80;74.29;102126.00;5041762;28;20116;-83
2022/08/29 07:52:28;;;;;;;14.53;5.90;;;;;;;16.97;74.17;102118.13;5042000;28;20087;-84
2022/08/29 07:54:54;;;;;;;14.57;5.90;;;;;;;17.00;73.27;102123.16;5040626;28;20123;-84
2022/08/29 07:57:20;;;;;;;14.00;5.57;;;;;;;17.09;71.33;102111.91;5040829;28;20029;-85
2022/08/29 07:59:46;;;;;;;13.03;6.20;;;;;;;17.07;69.82;102116.75;5041104;28;20151;-84
2022/08/29 08:02:11;;;;;;;12.50;5.60;;;;;;;17.13;69.16;102118.63;5041314;28;20163;-86
2022/08/29 08:04:36;;;;;;;14.53;5.03;;;;;;;17.29;66.16;102120.78;5021923;28;20040;-86
2022/08/29 08:07:02;;;;;;;12.20;5.73;;;;;;;17.24;66.14;102120.59;5022590;28;21645;-84
2022/08/29 08:09:27;;;;;;;12.13;5.87;;;;;;;17.23;69.23;102118.09;5039629;28;20092;-84
2022/08/29 08:11:52;;;;;;;12.40;5.80;;;;;;;17.23;67.78;102118.97;5038542;28;20047;-86
2022/08/29 08:14:18;;;;;;;12.97;6.10;;;;;;;17.32;68.87;102124.97;5038647;28;20041;-84
2022/08/29 08:16:44;;;;;;;17.30;6.80;;;;;;;17.33;68.04;102122.00;5040255;28;20033;-84
2022/08/29 08:19:14;;;;;;;11.03;5.93;;;;;;;17.34;67.66;102129.16;5038576;28;20139;-83
2022/08/29 08:21:42;;;;;;;12.47;6.30;;;;;;;17.60;67.17;102132.69;5040597;28;20040;-84
2022/08/29 08:24:08;;;;;;;13.83;6.47;;;;;;;17.68;66.52;102126.91;5039740;28;20568;-86
2022/08/29 08:26:34;;;;;;;11.53;6.40;;;;;;;17.75;65.70;102128.72;5039648;28;20045;-83
2022/08/29 08:28:59;;;;;;;11.63;6.03;;;;;;;17.61;65.88;102128.88;5038571;28;20043;-84
2022/08/29 08:31:24;;;;;;;12.63;6.60;;;;;;;17.74;68.13;102127.06;5040853;28;20094;-84
2022/08/29 08:33:50;;;;;;;11.97;5.90;;;;;;;17.64;64.41;102128.44;5041476;28;20146;-85
2022/08/29 08:36:16;;;;;;;10.05;5.50;;;;;;;17.68;65.02;102129.66;5043417;28;20116;-83
2022/08/29 08:38:42;;;;;;;10.20;4.80;;;;;;;17.70;64.16;102132.97;5043573;28;20064;-84
2022/08/29 08:41:25;;;;;;;9.73;3.70;;;;;;;17.78;62.26;102131.03;5043122;28;20160;-85
2022/08/29 08:43:57;;;;;;;9.00;3.40;;;;;;;17.81;61.77;102123.16;5043677;28;20455;-85
2022/08/29 08:46:37;;;;;;;8.65;3.42;;;;;;;17.85;61.82;102134.50;5043742;28;20286;-86
2022/08/29 08:49:09;;;;;;;9.10;3.47;;;;;;;17.96;61.59;102130.19;5043885;28;20032;-85
2022/08/29 08:51:38;;;;;;;8.50;3.85;;;;;;;17.97;59.59;102140.94;5043203;28;20036;-84
2022/08/29 08:54:11;;;;;;;8.75;3.85;;;;;;;17.97;58.22;102138.19;5039175;28;20033;-87
2022/08/29 08:56:42;;;;;;;8.40;4.05;;;;;;;17.89;58.18;102142.03;5042088;28;20102;-86
2022/08/29 08:59:30;;;;;;;6.13;3.40;;;;;;;18.00;59.55;102134.97;5022373;28;20370;-85
2022/08/29 09:02:16;;;;;;;7.70;3.60;;;;;;;18.07;58.93;102131.31;5044124;28;20523;-86
2022/08/29 09:05:02;;;;;;;8.65;3.70;;;;;;;18.20;60.41;102125.66;5039053;28;20032;-85
2022/08/29 09:07:39;;;;;;;7.18;3.50;;;;;;;18.43;60.26;102126.81;5041982;28;20048;-85
2022/08/29 09:10:23;;;;;;;6.90;3.65;;;;;;;18.65;59.29;102125.22;5041444;28;20079;-84
2022/08/29 09:12:51;;;;;;;6.45;3.22;;;;;;;18.67;57.11;102131.31;5042599;28;20045;-85
2022/08/29 09:15:22;;;;;;;8.43;3.60;;;;;;;18.72;56.13;102134.16;5041891;28;20064;-84
2022/08/29 09:17:54;;;;;;;8.25;3.40;;;;;;;18.59;56.11;102134.41;5041837;28;20028;-85
2022/08/29 09:20:30;;;;;;;6.60;3.63;;;;;;;18.45;56.60;102141.16;5041921;28;20159;-84
2022/08/29 09:23:01;;;;;;;8.73;3.80;;;;;;;18.53;57.32;102135.31;5042140;28;20037;-84
2022/08/29 09:25:29;;;;;;;6.85;3.38;;;;;;;18.45;57.21;102139.22;5042375;28;20432;-85
2022/08/29 09:27:56;;;;;;;7.32;3.35;;;;;;;18.54;56.63;102137.84;5041499;28;20158;-84
2022/08/29 09:31:00;;;;;;;9.63;3.53;;;;;;;18.61;58.78;102143.22;5023812;28;20040;-84
2022/08/29 09:33:40;;;;;;;7.85;3.50;;;;;;;18.65;58.41;102135.38;5041137;28;20037;-86
2022/08/29 09:36:05;;;;;;;7.75;3.70;;;;;;;18.55;57.59;102138.69;5037524;28;20536;-84
2022/08/29 09:38:31;;;;;;;10.27;3.42;;;;;;;18.69;56.63;102134.66;5040803;28;20037;-86
2022/08/29 09:41:09;;;;;;;5.50;3.35;;;;;;;18.90;57.13;102146.19;5027971;28;20503;-85
2022/08/29 09:43:37;;;;;;;6.93;3.45;;;;;;;18.86;56.18;102136.72;5041971;28;20064;-85
2022/08/29 09:46:04;;;;;;;7.60;3.42;;;;;;;19.15;57.36;102143.22;5042337;28;20045;-84
2022/08/29 09:48:30;;;;;;;5.97;3.42;;;;;;;19.19;56.68;102135.38;5042244;28;20074;-87
2022/08/29 09:51:14;;;;;;;8.50;3.33;;;;;;;19.37;57.58;102146.22;5042153;28;20107;-85
2022/08/29 09:53:41;;;;;;;7.85;3.35;;;;;;;19.26;55.47;102138.81;5041485;28;20037;-84
2022/08/29 09:56:11;;;;;;;10.98;3.90;;;;;;;19.29;55.85;102134.75;5008513;28;20499;-86
2022/08/29 09:58:39;;;;;;;7.10;3.70;;;;;;;19.27;54.24;102146.00;5041113;28;20151;-86
2022/08/29 10:01:31;;;;;;;8.35;3.58;;;;;;;19.39;56.40;102137.72;5041801;28;21332;-87
2022/08/29 10:04:02;;;;;;;7.03;3.47;;;;;;;19.46;54.45;102143.09;5040228;28;20021;-85
2022/08/29 10:06:38;;;;;;;6.78;3.55;;;;;;;19.43;53.03;102135.34;5039558;28;20039;-85
2022/08/29 10:09:23;;;;;;;7.00;3.60;;;;;;;19.42;53.95;102139.16;5010630;28;20046;-84
2022/08/29 10:12:01;;;;;;;9.23;3.30;;;;;;;19.21;54.37;102133.19;5040268;28;20732;-88
2022/08/29 10:14:33;;;;;;;6.28;3.40;;;;;;;19.53;54.78;102139.16;5023964;28;20028;-85
2022/08/29 10:19:46;;;;;;;8.15;3.70;;;;;;;20.05;52.79;102129.28;5041411;28;20072;-88
2022/08/29 10:22:30;;;;;;;8.35;3.80;;;;;;;20.20;53.47;102137.00;5039049;28;20045;-84
2022/08/29 10:25:07;;;;;;;8.70;3.58;;;;;;;20.53;52.72;102135.41;5041199;28;21213;-83
2022/08/29 10:27:42;;;;;;;7.25;3.55;;;;;;;20.24;51.86;102133.50;5040666;28;20033;-85
2022/08/29 10:30:15;;;;;;;9.32;3.70;;;;;;;19.90;52.41;102132.56;5042380;28;20700;-86
2022/08/29 10:33:13;;;;;;;6.88;3.60;;;;;;;19.88;52.68;102130.06;5041521;28;20040;-86
2022/08/29 10:36:00;;;;;;;8.02;3.65;;;;;;;19.60;54.47;102129.94;4980364;28;20049;-84
2022/08/29 10:38:25;;;;;;;9.65;3.40;;;;;;;19.42;53.79;102126.28;5040754;28;20032;-86
2022/08/29 10:41:16;;;;;;;8.65;3.40;;;;;;;19.84;54.74;102119.75;5042553;28;20064;-85
2022/08/29 10:44:04;;;;;;;10.77;4.00;;;;;;;20.42;52.53;102124.19;5010556;28;20473;-85
2022/08/29 10:46:45;;;;;;;7.40;3.63;;;;;;;20.98;51.97;102126.28;5020860;28;20047;-85
2022/08/29 10:49:10;;;;;;;7.18;3.30;;;;;;;21.46;49.56;102126.75;5042662;28;20048;-86
2022/08/29 10:52:04;;;;;;;8.57;3.63;;;;;;;21.76;49.08;102125.50;5042646;28;20045;-90
2022/08/29 10:54:50;;;;;;;;;;;;;;;22.23;50.40;102124.13;5041647;28;20553;-86
2022/08/29 10:57:28;;;;;;;8.55;3.60;;;;;;;22.39;48.15;102111.34;5041677;28;19952;-86
2022/08/29 11:00:21;;;;;;;7.32;3.33;;;;;;;22.47;46.81;102112.81;5042188;28;20032;-85
2022/08/29 11:03:03;;;;;;;7.85;3.58;;;;;;;22.96;47.56;102104.38;5039317;28;20049;-86
2022/08/29 11:05:36;;;;;;;9.55;3.33;;;;;;;23.11;45.55;102106.41;5040559;28;20086;-87
2022/08/29 11:08:09;;;;;;;6.88;3.22;;;;;;;23.25;46.20;102107.66;5009488;28;20396;-88
2022/08/29 11:10:41;;;;;;;6.63;3.40;;;;;;;23.29;44.72;102099.63;5041326;28;20029;-85
2022/08/29 11:13:10;;;;;;;6.68;3.22;;;;;;;23.53;44.45;102090.94;5042434;28;20037;-86
2022/08/29 11:15:42;;;;;;;5.70;3.15;;;;;;;23.66;42.74;102093.16;5041813;28;20029;-83
2022/08/29 11:18:27;;;;;;;6.75;3.08;;;;;;;24.05;44.54;102092.78;5042123;28;20031;-86
2022/08/29 11:21:02;;;;;;;8.00;3.42;;;;;;;24.50;44.14;102097.84;5041756;28;20918;-87
2022/08/29 11:23:48;;;;;;;10.50;3.88;;;;;;;24.27;44.19;102092.56;5042615;28;20107;-87
2022/08/29 11:27:06;;;;;;;11.10;3.70;;;;;;;23.89;44.85;102089.13;5041429;28;20150;-91
2022/08/29 11:29:51;;;;;;;11.35;3.95;;;;;;;23.88;44.93;102084.72;5014579;28;20060;-85
2022/08/29 11:32:31;;;;;;;8.05;3.90;;;;;;;23.11;46.58;102067.72;5038217;28;20033;-88
2022/08/29 11:35:23;;;;;;;8.73;3.90;;;;;;;22.50;47.53;102074.44;5037346;28;20025;-85